createdAt,value
2023-03-17T00:02:08.402Z,64.70
2023-03-17T00:04:36.750Z,64.70
2023-03-17T00:07:06.464Z,64.80
2023-03-17T00:09:36.033Z,64.90
2023-03-17T00:12:07.994Z,64.90
2023-03-17T00:14:36.290Z,64.80
2023-03-17T00:17:04.536Z,65.00
2023-03-17T00:19:35.781Z,65.00
2023-03-17T00:22:06.658Z,64.90
2023-03-17T00:24:36.496Z,65.00
2023-03-17T00:27:12.283Z,65.10
2023-03-17T00:29:41.266Z,65.00
2023-03-17T00:32:17.723Z,65.10
2023-03-17T00:34:46.337Z,65.00
2023-03-17T00:37:14.745Z,65.10
2023-03-17T00:39:44.278Z,65.10
2023-03-17T00:42:12.592Z,65.00
2023-03-17T00:44:40.746Z,65.10
2023-03-17T00:47:11.905Z,65.20
2023-03-17T00:49:40.186Z,65.20
2023-03-17T00:52:09.700Z,65.30
2023-03-17T00:54:37.817Z,65.20
2023-03-17T00:57:10.798Z,65.10
2023-03-17T00:59:41.710Z,65.10
2023-03-17T01:02:12.395Z,65.10
2023-03-17T01:04:41.226Z,65.10
2023-03-17T01:07:12.079Z,65.10
2023-03-17T01:09:40.326Z,65.00
2023-03-17T01:12:13.683Z,65.00
2023-03-17T01:14:41.978Z,65.00
2023-03-17T01:17:15.161Z,64.90
2023-03-17T01:19:44.603Z,64.80
2023-03-17T01:22:13.608Z,64.70
2023-03-17T01:24:49.403Z,64.50
2023-03-17T01:27:20.606Z,64.20
2023-03-17T01:29:51.727Z,64.10
2023-03-17T01:32:21.533Z,64.00
2023-03-17T01:34:55.540Z,63.80
2023-03-17T01:37:23.678Z,63.70
2023-03-17T01:39:54.691Z,63.50
2023-03-17T01:42:27.186Z,63.50
2023-03-17T01:45:02.855Z,63.50
2023-03-17T01:47:35.290Z,63.50
2023-03-17T01:50:07.770Z,63.70
2023-03-17T01:52:40.821Z,63.80
2023-03-17T01:55:14.041Z,63.90
2023-03-17T01:57:50.873Z,63.90
2023-03-17T02:00:28.859Z,63.90
2023-03-17T02:02:58.445Z,63.90
2023-03-17T02:05:32.435Z,63.90
2023-03-17T02:08:03.260Z,64.00
2023-03-17T02:10:48.539Z,64.10
2023-03-17T02:13:42.973Z,64.10
2023-03-17T02:16:20.122Z,63.90
2023-03-17T02:18:49.037Z,64.00
2023-03-17T02:21:41.473Z,63.90
2023-03-17T02:24:20.885Z,64.00
2023-03-17T02:26:52.223Z,64.00
2023-03-17T02:29:21.696Z,64.00
2023-03-17T02:31:52.222Z,64.10
2023-03-17T02:34:24.204Z,64.20
2023-03-17T02:37:03.403Z,64.20
2023-03-17T02:39:35.238Z,64.30
2023-03-17T02:42:04.159Z,64.60
2023-03-17T02:44:33.443Z,64.80
2023-03-17T02:47:06.066Z,64.90
2023-03-17T02:49:48.095Z,65.10
2023-03-17T02:52:43.404Z,65.10
2023-03-17T02:55:16.016Z,65.30
2023-03-17T02:57:45.347Z,65.40
2023-03-17T03:00:14.705Z,65.50
2023-03-17T03:02:46.636Z,65.60
2023-03-17T03:05:25.558Z,65.70
2023-03-17T03:08:00.164Z,65.90
2023-03-17T03:10:31.395Z,66.00
2023-03-17T03:13:00.345Z,66.00
2023-03-17T03:15:34.032Z,66.10
2023-03-17T03:18:04.519Z,66.10
2023-03-17T03:20:36.082Z,66.10
2023-03-17T03:23:13.342Z,66.20
2023-03-17T03:25:41.774Z,66.30
2023-03-17T03:28:11.938Z,66.40
2023-03-17T03:30:42.159Z,66.50
2023-03-17T03:33:14.391Z,66.60
2023-03-17T03:35:43.168Z,66.70
2023-03-17T03:38:13.477Z,66.70
2023-03-17T03:43:25.005Z,66.90
2023-03-17T03:45:54.614Z,67.00
2023-03-17T03:48:26.153Z,67.20
2023-03-17T03:50:59.064Z,67.20
2023-03-17T03:53:32.928Z,67.40
2023-03-17T03:56:01.939Z,67.40
2023-03-17T03:58:34.526Z,67.50
2023-03-17T04:01:06.259Z,67.70
2023-03-17T04:03:37.189Z,67.70
2023-03-17T04:06:14.383Z,67.90
2023-03-17T04:08:55.959Z,67.80
2023-03-17T04:11:27.590Z,67.80
2023-03-17T04:13:55.996Z,67.90
2023-03-17T04:16:24.483Z,67.90
2023-03-17T04:18:59.387Z,68.00
2023-03-17T04:21:29.719Z,67.90
2023-03-17T04:24:02.627Z,67.90
2023-03-17T04:26:33.083Z,68.00
2023-03-17T04:29:03.652Z,67.90
2023-03-17T04:31:34.148Z,68.20
2023-03-17T04:34:05.653Z,68.10
2023-03-17T04:36:37.275Z,68.20
2023-03-17T04:39:07.265Z,68.20
2023-03-17T04:41:43.050Z,68.30
2023-03-17T04:44:13.865Z,68.40
2023-03-17T04:46:44.413Z,68.30
2023-03-17T04:49:16.492Z,68.50
2023-03-17T04:51:46.069Z,68.50
2023-03-17T04:54:16.766Z,68.40
2023-03-17T04:56:45.968Z,68.60
2023-03-17T04:59:14.096Z,68.70
2023-03-17T05:01:46.099Z,68.60
2023-03-17T05:04:30.790Z,68.70
2023-03-17T05:07:10.761Z,68.80
2023-03-17T05:09:44.264Z,68.70
2023-03-17T05:12:14.855Z,68.70
2023-03-17T05:14:44.341Z,68.70
2023-03-17T05:17:15.162Z,68.80
2023-03-17T05:19:45.726Z,68.80
2023-03-17T05:22:16.730Z,68.80
2023-03-17T05:24:48.128Z,68.70
2023-03-17T05:27:19.533Z,68.80
2023-03-17T05:29:47.692Z,68.80
2023-03-17T05:32:17.103Z,68.70
2023-03-17T05:34:48.831Z,68.90
2023-03-17T05:37:17.688Z,68.80
2023-03-17T05:39:49.340Z,69.00
2023-03-17T05:42:19.749Z,69.10
2023-03-17T05:45:05.149Z,69.10
2023-03-17T05:47:37.254Z,69.20
2023-03-17T05:50:09.453Z,69.20
2023-03-17T05:52:50.334Z,69.10
2023-03-17T05:55:22.925Z,69.20
2023-03-17T05:57:54.785Z,69.20
2023-03-17T06:00:26.316Z,69.30
2023-03-17T06:02:57.054Z,69.30
2023-03-17T06:05:29.294Z,69.30
2023-03-17T06:07:59.484Z,69.30
2023-03-17T06:10:39.177Z,69.00
2023-03-17T06:13:14.815Z,69.20
2023-03-17T06:15:44.628Z,69.20
2023-03-17T06:18:15.115Z,69.10
2023-03-17T06:20:49.470Z,69.20
2023-03-17T06:23:19.414Z,69.10
2023-03-17T06:26:05.896Z,69.20
2023-03-17T06:28:37.297Z,69.10
2023-03-17T06:31:07.284Z,69.10
2023-03-17T06:33:36.197Z,68.90
2023-03-17T06:36:07.113Z,68.80
2023-03-17T06:38:36.499Z,68.80
2023-03-17T06:41:22.684Z,68.70
2023-03-17T06:43:55.590Z,68.70
2023-03-17T06:46:26.082Z,68.60
2023-03-17T06:48:54.831Z,68.50
2023-03-17T06:51:23.208Z,68.30
2023-03-17T06:53:52.812Z,68.00
2023-03-17T06:56:29.773Z,68.00
2023-03-17T06:58:59.365Z,67.90
2023-03-17T07:01:30.699Z,67.70
2023-03-17T07:04:01.857Z,67.40
2023-03-17T07:06:32.466Z,67.30
2023-03-17T07:09:02.436Z,67.00
2023-03-17T07:11:35.707Z,67.00
2023-03-17T07:14:05.648Z,66.80
2023-03-17T07:16:34.038Z,66.80
2023-03-17T07:19:03.380Z,66.80
2023-03-17T07:21:31.641Z,66.70
2023-03-17T07:24:00.903Z,66.40
2023-03-17T07:26:29.047Z,66.10
2023-03-17T07:29:04.376Z,65.90
2023-03-17T07:31:41.261Z,65.80
2023-03-17T07:34:12.806Z,65.70
2023-03-17T07:36:45.346Z,65.50
2023-03-17T07:39:14.897Z,65.50
2023-03-17T07:41:46.574Z,65.10
2023-03-17T07:44:23.373Z,64.70
2023-03-17T07:46:57.078Z,64.40
2023-03-17T07:49:40.413Z,63.80
2023-03-17T07:52:12.733Z,63.40
2023-03-17T07:54:43.384Z,62.80
2023-03-17T07:57:28.476Z,62.50
2023-03-17T08:00:09.785Z,62.20
2023-03-17T08:02:41.434Z,61.80
2023-03-17T08:05:17.733Z,61.60
2023-03-17T08:07:48.551Z,60.80
2023-03-17T08:13:04.776Z,60.10
2023-03-17T08:15:57.781Z,60.00
2023-03-17T08:18:30.014Z,59.40
2023-03-17T08:20:58.776Z,59.10
2023-03-17T08:23:36.839Z,58.60
2023-03-17T08:26:08.507Z,58.20
2023-03-17T08:28:39.821Z,57.70
2023-03-17T08:31:14.783Z,57.40
2023-03-17T08:34:00.666Z,57.20
2023-03-17T08:36:33.069Z,56.70
2023-03-17T08:39:12.540Z,56.40
2023-03-17T08:41:42.249Z,56.40
2023-03-17T08:44:20.843Z,56.10
2023-03-17T08:47:00.043Z,55.70
2023-03-17T08:49:32.125Z,55.50
2023-03-17T08:52:03.863Z,55.30
2023-03-17T08:54:37.991Z,54.80
2023-03-17T08:57:21.568Z,54.80
2023-03-17T08:59:58.879Z,54.40
2023-03-17T09:02:30.981Z,54.00
2023-03-17T09:05:04.774Z,53.60
2023-03-17T09:07:33.997Z,53.00
2023-03-17T09:10:19.214Z,51.80
2023-03-17T09:12:49.962Z,52.20
2023-03-17T09:15:21.324Z,52.10
2023-03-17T09:18:00.954Z,51.80
2023-03-17T09:20:33.204Z,51.10
2023-03-17T09:23:11.325Z,50.80
2023-03-17T09:25:42.923Z,50.40
2023-03-17T09:28:13.426Z,49.80
2023-03-17T09:30:43.749Z,49.50
2023-03-17T09:33:14.995Z,49.60
2023-03-17T09:35:45.931Z,49.60
2023-03-17T09:38:14.037Z,50.00
2023-03-17T09:40:49.205Z,50.20
2023-03-17T09:43:29.714Z,50.50
2023-03-17T09:45:57.955Z,50.50
2023-03-17T09:48:39.052Z,50.10
2023-03-17T09:51:09.056Z,50.20
2023-03-17T09:53:50.215Z,49.80
2023-03-17T09:56:20.839Z,50.00
2023-03-17T09:58:52.943Z,50.20
2023-03-17T10:01:21.553Z,50.50
2023-03-17T10:03:51.683Z,50.40
2023-03-17T10:06:33.566Z,50.20
2023-03-17T10:09:08.306Z,50.10
2023-03-17T10:11:43.053Z,49.90
2023-03-17T10:14:30.955Z,49.80
2023-03-17T10:17:04.525Z,49.80
2023-03-17T10:19:39.568Z,49.70
2023-03-17T10:22:16.967Z,49.30
2023-03-17T10:24:50.587Z,49.30
2023-03-17T10:27:20.217Z,49.00
2023-03-17T10:29:48.803Z,48.90
2023-03-17T10:32:17.202Z,48.40
2023-03-17T10:34:49.084Z,48.20
2023-03-17T10:37:21.152Z,48.20
2023-03-17T10:39:51.899Z,47.50
2023-03-17T10:42:25.198Z,46.60
2023-03-17T10:44:56.928Z,46.90
2023-03-17T10:47:30.359Z,46.80
2023-03-17T10:50:05.606Z,47.00
2023-03-17T10:52:39.657Z,46.20
2023-03-17T10:55:10.803Z,46.10
2023-03-17T10:57:40.055Z,46.30
2023-03-17T11:00:16.913Z,44.80
2023-03-17T11:02:48.418Z,45.10
2023-03-17T11:05:23.593Z,44.50
2023-03-17T11:07:57.876Z,43.90
2023-03-17T11:10:28.002Z,44.10
2023-03-17T11:13:00.558Z,43.90
2023-03-17T11:15:35.148Z,43.60
2023-03-17T11:18:04.928Z,43.80
2023-03-17T11:20:45.832Z,43.70
2023-03-17T11:23:33.038Z,43.20
2023-03-17T11:26:10.496Z,43.10
2023-03-17T11:28:42.200Z,42.90
2023-03-17T11:31:15.750Z,42.70
2023-03-17T11:33:50.726Z,42.60
2023-03-17T11:36:36.319Z,42.40
2023-03-17T11:39:12.668Z,42.00
2023-03-17T11:41:51.672Z,41.90
2023-03-17T11:44:41.446Z,41.70
2023-03-17T11:47:16.095Z,41.40
2023-03-17T11:49:54.175Z,41.30
2023-03-17T11:52:32.827Z,40.90
2023-03-17T11:55:10.073Z,40.40
2023-03-17T11:57:45.849Z,40.60
2023-03-17T12:00:22.746Z,39.90
2023-03-17T12:02:56.378Z,40.10
2023-03-17T12:05:26.950Z,40.10
2023-03-17T12:08:00.762Z,39.50
2023-03-17T12:10:36.452Z,39.00
2023-03-17T12:13:09.623Z,38.90
2023-03-17T12:15:43.571Z,38.90
2023-03-17T12:18:17.178Z,38.90
2023-03-17T12:20:51.878Z,38.30
2023-03-17T12:23:30.184Z,38.50
2023-03-17T12:26:03.905Z,38.60
2023-03-17T12:28:37.693Z,38.70
2023-03-17T12:31:09.173Z,38.30
2023-03-17T12:33:44.880Z,38.10
2023-03-17T12:36:17.254Z,37.60
2023-03-17T12:38:51.937Z,37.60
2023-03-17T12:41:29.841Z,37.80
2023-03-17T12:44:11.261Z,37.10
2023-03-17T12:46:51.369Z,37.60
2023-03-17T12:50:05.797Z,36.90
2023-03-17T12:52:48.437Z,36.60
2023-03-17T12:55:19.730Z,37.70
2023-03-17T12:57:58.803Z,37.60
2023-03-17T13:00:29.760Z,37.80
2023-03-17T13:03:14.606Z,37.70
2023-03-17T13:05:48.134Z,38.10
2023-03-17T13:08:24.023Z,38.20
2023-03-17T13:11:19.070Z,38.70
2023-03-17T13:13:59.201Z,38.70
2023-03-17T13:16:30.555Z,38.80
2023-03-17T13:19:16.945Z,38.40
2023-03-17T13:21:53.088Z,38.00
2023-03-17T13:24:42.002Z,38.60
2023-03-17T13:27:14.495Z,38.40
2023-03-17T13:29:45.686Z,38.00
2023-03-17T13:32:41.063Z,38.20
2023-03-17T13:35:40.362Z,38.10
2023-03-17T13:38:34.227Z,38.50
2023-03-17T13:41:37.771Z,38.80
2023-03-17T13:44:22.520Z,38.40
2023-03-17T13:46:51.670Z,38.20
2023-03-17T13:49:28.458Z,38.30
2023-03-17T13:52:03.508Z,38.30
2023-03-17T13:54:34.605Z,38.50
2023-03-17T13:57:25.323Z,38.20
2023-03-17T14:00:01.854Z,38.10
2023-03-17T14:02:32.926Z,38.40
2023-03-17T14:05:04.122Z,38.80
2023-03-17T14:07:40.606Z,38.40
2023-03-17T14:10:17.417Z,38.20
2023-03-17T14:12:52.059Z,38.30
2023-03-17T14:15:27.672Z,37.80
2023-03-17T14:18:01.634Z,37.80
2023-03-17T14:20:30.144Z,37.70
2023-03-17T14:23:01.502Z,37.90
2023-03-17T14:25:34.758Z,37.90
2023-03-17T14:28:09.343Z,37.90
2023-03-17T14:30:40.925Z,38.20
2023-03-17T14:33:22.102Z,38.20
2023-03-17T14:35:52.480Z,38.00
2023-03-17T14:38:23.087Z,38.00
2023-03-17T14:40:52.546Z,37.90
2023-03-17T14:43:20.879Z,37.70
2023-03-17T14:45:55.696Z,37.50
2023-03-17T14:48:27.451Z,37.10
2023-03-17T14:50:57.095Z,36.90
2023-03-17T14:53:26.446Z,36.90
2023-03-17T14:55:54.836Z,36.70
2023-03-17T14:58:26.386Z,36.80
2023-03-17T15:01:02.907Z,36.80
2023-03-17T15:03:33.186Z,36.60
2023-03-17T15:06:08.144Z,36.60
2023-03-17T15:08:47.050Z,36.30
2023-03-17T15:11:25.457Z,36.40
2023-03-17T15:13:58.164Z,36.30
2023-03-17T15:16:30.873Z,36.20
2023-03-17T15:19:16.567Z,36.10
2023-03-17T15:21:44.864Z,36.10
2023-03-17T15:24:35.245Z,36.00
2023-03-17T15:27:05.886Z,35.40
2023-03-17T15:29:35.229Z,35.60
2023-03-17T15:32:16.712Z,35.70
2023-03-17T15:34:44.962Z,35.70
2023-03-17T15:37:17.714Z,35.70
2023-03-17T15:39:46.175Z,35.70
2023-03-17T15:42:14.432Z,35.70
2023-03-17T15:44:42.761Z,35.90
2023-03-17T15:47:16.689Z,36.00
2023-03-17T15:49:45.598Z,36.30
2023-03-17T15:52:17.962Z,36.70
2023-03-17T15:54:46.279Z,37.00
2023-03-17T15:57:14.749Z,37.20
2023-03-17T15:59:43.110Z,37.40
2023-03-17T16:02:34.445Z,37.70
2023-03-17T16:05:06.463Z,38.10
2023-03-17T16:07:34.623Z,38.30
2023-03-17T16:10:02.766Z,38.50
2023-03-17T16:12:30.869Z,38.80
2023-03-17T16:14:58.970Z,38.90
2023-03-17T16:17:30.045Z,39.10
2023-03-17T16:20:00.454Z,39.20
2023-03-17T16:22:41.888Z,39.50
2023-03-17T16:25:21.651Z,39.60
2023-03-17T16:27:50.882Z,39.80
2023-03-17T16:30:20.801Z,40.00
2023-03-17T16:32:50.125Z,40.10
2023-03-17T16:35:22.200Z,40.30
2023-03-17T16:37:54.209Z,40.50
2023-03-17T16:40:25.451Z,40.50
2023-03-17T16:42:54.239Z,40.70
2023-03-17T16:45:27.598Z,40.90
2023-03-17T16:47:56.010Z,41.00
2023-03-17T16:50:27.263Z,40.90
2023-03-17T16:52:55.956Z,41.00
2023-03-17T16:55:26.095Z,41.20
2023-03-17T16:57:58.212Z,41.40
2023-03-17T17:00:30.387Z,41.80
2023-03-17T17:02:59.395Z,42.00
2023-03-17T17:05:31.204Z,42.30
2023-03-17T17:08:00.151Z,42.40
2023-03-17T17:10:30.308Z,42.70
2023-03-17T17:12:58.677Z,42.90
2023-03-17T17:15:27.013Z,43.10
2023-03-17T17:17:58.437Z,43.50
2023-03-17T17:20:31.813Z,43.70
2023-03-17T17:23:01.061Z,43.90
2023-03-17T17:25:30.587Z,44.40
2023-03-17T17:27:59.926Z,44.90
2023-03-17T17:30:30.459Z,45.40
2023-03-17T17:33:00.739Z,45.80
2023-03-17T17:35:33.237Z,46.10
2023-03-17T17:38:01.936Z,46.40
2023-03-17T17:40:31.153Z,47.00
2023-03-17T17:42:59.400Z,47.30
2023-03-17T17:45:27.511Z,47.80
2023-03-17T17:47:55.861Z,48.10
2023-03-17T17:50:27.396Z,48.50
2023-03-17T17:53:02.714Z,48.80
2023-03-17T17:55:30.938Z,49.00
2023-03-17T17:57:59.073Z,49.20
2023-03-17T18:00:27.583Z,49.50
2023-03-17T18:02:55.833Z,49.70
2023-03-17T18:05:23.995Z,49.90
2023-03-17T18:07:52.264Z,50.10
2023-03-17T18:10:25.776Z,50.20
2023-03-17T18:12:54.358Z,50.70
2023-03-17T18:15:23.118Z,51.20
2023-03-17T18:17:51.656Z,51.70
2023-03-17T18:20:21.763Z,51.90
2023-03-17T18:22:50.885Z,52.30
2023-03-17T18:25:20.256Z,52.60
2023-03-17T18:27:49.979Z,52.80
2023-03-17T18:30:23.332Z,53.10
2023-03-17T18:32:54.010Z,53.20
2023-03-17T18:35:23.699Z,53.50
2023-03-17T18:37:52.245Z,53.70
2023-03-17T18:40:20.924Z,53.80
2023-03-17T18:42:50.440Z,54.10
2023-03-17T18:45:19.091Z,54.10
2023-03-17T18:47:47.274Z,54.20
2023-03-17T18:50:16.797Z,54.40
2023-03-17T18:52:46.038Z,54.70
2023-03-17T18:55:15.887Z,55.00
2023-03-17T18:57:45.759Z,55.10
2023-03-17T19:00:17.474Z,55.20
2023-03-17T19:02:46.272Z,55.50
2023-03-17T19:05:15.503Z,55.60
2023-03-17T19:07:43.615Z,55.10
2023-03-17T19:10:13.967Z,55.10
2023-03-17T19:12:42.636Z,55.20
2023-03-17T19:15:12.987Z,55.30
2023-03-17T19:17:43.175Z,55.40
2023-03-17T19:20:13.243Z,55.40
2023-03-17T19:22:41.742Z,55.10
2023-03-17T19:25:11.576Z,55.10
2023-03-17T19:27:40.077Z,55.10
2023-03-17T19:30:09.523Z,55.20
2023-03-17T19:32:37.674Z,55.00
2023-03-17T19:35:08.665Z,55.20
2023-03-17T19:37:38.151Z,55.20
2023-03-17T19:40:09.609Z,55.30
2023-03-17T19:42:37.792Z,55.30
2023-03-17T19:45:06.950Z,55.10
2023-03-17T19:47:35.227Z,55.20
2023-03-17T19:50:03.472Z,55.00
2023-03-17T19:52:33.025Z,55.00
2023-03-17T19:55:01.203Z,55.10
2023-03-17T19:57:29.319Z,55.30
2023-03-17T19:59:57.455Z,55.40
2023-03-17T20:02:25.847Z,55.50
2023-03-17T20:04:54.683Z,55.70
2023-03-17T20:07:22.988Z,55.60
2023-03-17T20:09:54.074Z,55.40
2023-03-17T20:12:22.502Z,55.20
2023-03-17T20:14:58.909Z,54.70
2023-03-17T20:17:29.995Z,53.50
2023-03-17T20:19:58.135Z,52.80
2023-03-17T20:25:13.321Z,51.30
2023-03-17T20:27:41.754Z,51.00
2023-03-17T20:30:12.380Z,51.00
2023-03-17T20:32:40.759Z,51.00
2023-03-17T20:35:09.721Z,50.70
2023-03-17T20:37:38.724Z,50.40
2023-03-17T20:40:09.938Z,50.10
2023-03-17T20:42:39.504Z,49.90
2023-03-17T20:45:08.999Z,49.70
2023-03-17T20:47:37.667Z,49.50
2023-03-17T20:50:08.837Z,49.10
2023-03-17T20:52:37.346Z,48.80
2023-03-17T20:55:06.349Z,48.60
2023-03-17T20:57:36.764Z,47.60
2023-03-17T21:00:08.317Z,47.30
2023-03-17T21:02:36.733Z,47.00
2023-03-17T21:05:08.029Z,46.70
2023-03-17T21:07:38.917Z,46.30
2023-03-17T21:10:10.060Z,45.40
2023-03-17T21:12:40.404Z,45.10
2023-03-17T21:15:13.109Z,45.00
2023-03-17T21:17:42.330Z,45.00
2023-03-17T21:20:13.008Z,44.90
2023-03-17T21:22:41.492Z,44.70
2023-03-17T21:25:11.613Z,44.50
2023-03-17T21:27:41.517Z,44.50
2023-03-17T21:30:14.394Z,44.40
2023-03-17T21:32:43.076Z,43.10
2023-03-17T21:35:11.741Z,43.90
2023-03-17T21:37:39.875Z,44.20
2023-03-17T21:40:09.496Z,44.10
2023-03-17T21:42:37.810Z,44.20
2023-03-17T21:45:06.880Z,44.00
2023-03-17T21:47:36.815Z,43.90
2023-03-17T21:50:06.122Z,43.80
2023-03-17T21:52:34.446Z,43.90
2023-03-17T21:55:02.560Z,43.90
2023-03-17T21:57:30.972Z,44.00
2023-03-17T21:59:59.292Z,44.20
2023-03-17T22:02:28.181Z,44.20
2023-03-17T22:04:58.016Z,44.20
2023-03-17T22:07:26.186Z,44.00
2023-03-17T22:09:54.981Z,44.00
2023-03-17T22:12:24.129Z,43.70
2023-03-17T22:14:52.760Z,43.80
2023-03-17T22:17:20.885Z,43.70
2023-03-17T22:19:49.019Z,43.70
2023-03-17T22:22:18.564Z,43.80
2023-03-17T22:24:47.379Z,43.70
2023-03-17T22:27:16.341Z,43.70
2023-03-17T22:29:44.711Z,43.70
2023-03-17T22:32:12.962Z,43.80
2023-03-17T22:34:41.164Z,43.80
2023-03-17T22:37:09.701Z,43.70
2023-03-17T22:39:39.849Z,43.90
2023-03-17T22:42:08.476Z,44.00
2023-03-17T22:44:36.585Z,44.10
2023-03-17T22:47:05.101Z,44.10
2023-03-17T22:49:33.242Z,44.30
2023-03-17T22:52:01.333Z,44.40
2023-03-17T22:54:29.527Z,44.50
2023-03-17T22:56:59.021Z,44.70
2023-03-17T22:59:27.515Z,44.80
2023-03-17T23:01:55.621Z,45.00
2023-03-17T23:04:24.574Z,45.10
2023-03-17T23:06:53.045Z,45.10
2023-03-17T23:09:21.862Z,45.20
2023-03-17T23:11:50.090Z,45.50
2023-03-17T23:14:19.757Z,45.70
2023-03-17T23:16:48.808Z,45.20
2023-03-17T23:19:17.175Z,44.90
2023-03-17T23:21:45.503Z,45.00
2023-03-17T23:24:13.734Z,45.20
2023-03-17T23:26:42.023Z,45.40
2023-03-17T23:29:10.430Z,45.70
2023-03-17T23:31:40.951Z,45.70
2023-03-17T23:34:09.924Z,45.50
2023-03-17T23:36:40.069Z,45.60
2023-03-17T23:39:08.514Z,45.60
2023-03-17T23:41:37.368Z,45.80
2023-03-17T23:44:06.565Z,46.20
2023-03-17T23:46:34.808Z,46.40
2023-03-17T23:49:04.459Z,47.00
2023-03-17T23:51:33.460Z,47.30
2023-03-17T23:54:01.765Z,47.70
2023-03-17T23:56:30.047Z,48.00
2023-03-17T23:58:58.167Z,48.40
